createdAt,value
2017-08-07T00:01:08.437Z,101579.34
2017-08-07T00:03:36.367Z,101581.63
2017-08-07T00:06:03.846Z,101579.73
2017-08-07T00:08:31.549Z,101579.84
2017-08-07T00:10:59.252Z,101581.47
2017-08-07T00:13:27.072Z,101574.30
2017-08-07T00:15:54.790Z,101566.96
2017-08-07T00:18:22.487Z,101569.34
2017-08-07T00:20:50.250Z,101568.87
2017-08-07T00:26:09.127Z,101569.31
2017-08-07T00:28:36.943Z,101564.95
2017-08-07T00:31:04.477Z,101565.22
2017-08-07T00:33:32.080Z,101568.94
2017-08-07T00:35:59.538Z,101567.21
2017-08-07T00:38:27.226Z,101558.96
2017-08-07T00:40:54.837Z,101565.12
2017-08-07T00:43:22.262Z,101571.31
2017-08-07T00:45:49.986Z,101568.36
2017-08-07T00:48:17.393Z,101568.28
2017-08-07T00:50:44.776Z,101570.05
2017-08-07T00:53:12.179Z,101566.66
2017-08-07T00:55:39.571Z,101568.43
2017-08-07T00:58:06.976Z,101564.98
2017-08-07T01:00:34.368Z,101561.70
2017-08-07T01:03:01.764Z,101561.36
2017-08-07T01:05:29.159Z,101559.77
2017-08-07T01:07:56.570Z,101567.62
2017-08-07T01:10:23.958Z,101567.20
2017-08-07T01:12:51.388Z,101565.25
2017-08-07T01:15:18.777Z,101560.75
2017-08-07T01:17:46.179Z,101560.57
2017-08-07T01:20:13.583Z,101554.49
2017-08-07T01:22:40.972Z,101550.66
2017-08-07T01:25:08.359Z,101549.93
2017-08-07T01:27:35.755Z,101548.10
2017-08-07T01:30:03.147Z,101554.88
2017-08-07T01:32:30.539Z,101554.14
2017-08-07T01:34:57.927Z,101548.62
2017-08-07T01:37:25.319Z,101550.45
2017-08-07T01:39:52.723Z,101548.86
2017-08-07T01:42:20.105Z,101550.36
2017-08-07T01:44:47.707Z,101548.71
2017-08-07T01:47:15.096Z,101554.30
2017-08-07T01:49:42.489Z,101546.36
2017-08-07T01:52:09.875Z,101550.06
2017-08-07T01:54:37.270Z,101548.88
2017-08-07T01:57:04.666Z,101549.30
2017-08-07T01:59:32.071Z,101546.56
2017-08-07T02:01:59.455Z,101543.36
2017-08-07T02:04:26.850Z,101542.94
2017-08-07T02:06:54.772Z,101541.39
2017-08-07T02:09:22.164Z,101543.06
2017-08-07T02:11:49.547Z,101543.06
2017-08-07T02:14:16.949Z,101544.53
2017-08-07T02:16:44.339Z,101539.20
2017-08-07T02:19:11.743Z,101543.62
2017-08-07T02:21:39.134Z,101539.30
2017-08-07T02:24:06.527Z,101540.94
2017-08-07T02:26:33.923Z,101534.68
2017-08-07T02:29:01.314Z,101535.11
2017-08-07T02:31:28.717Z,101534.19
2017-08-07T02:33:56.090Z,101533.45
2017-08-07T02:36:23.484Z,101534.27
2017-08-07T02:38:50.881Z,101523.50
2017-08-07T02:41:18.283Z,101523.48
2017-08-07T02:43:45.686Z,101525.77
2017-08-07T02:46:13.066Z,101527.57
2017-08-07T02:48:40.463Z,101526.84
2017-08-07T02:51:07.855Z,101528.26
2017-08-07T02:53:35.239Z,101526.62
2017-08-07T02:56:02.657Z,101526.54
2017-08-07T02:58:30.060Z,101524.70
2017-08-07T03:00:57.442Z,101523.52
2017-08-07T03:03:24.825Z,101519.36
2017-08-07T03:05:52.214Z,101520.27
2017-08-07T03:08:19.604Z,101518.13
2017-08-07T03:10:46.995Z,101513.55
2017-08-07T03:13:14.383Z,101507.13
2017-08-07T03:15:41.770Z,101509.92
2017-08-07T03:18:09.165Z,101505.99
2017-08-07T03:20:36.839Z,101503.50
2017-08-07T03:23:04.237Z,101502.10
2017-08-07T03:25:31.630Z,101502.30
2017-08-07T03:27:59.014Z,101500.82
2017-08-07T03:30:26.402Z,101501.80
2017-08-07T03:32:53.797Z,101499.62
2017-08-07T03:35:21.186Z,101498.42
2017-08-07T03:37:48.827Z,101502.61
2017-08-07T03:40:16.219Z,101493.80
2017-08-07T03:42:43.613Z,101494.38
2017-08-07T03:45:11.007Z,101489.05
2017-08-07T03:47:38.407Z,101495.20
2017-08-07T03:50:05.805Z,101484.55
2017-08-07T03:52:33.202Z,101490.83
2017-08-07T03:55:00.597Z,101497.03
2017-08-07T03:57:27.990Z,101495.38
2017-08-07T03:59:56.078Z,101490.20
2017-08-07T04:02:23.467Z,101488.80
2017-08-07T04:04:50.854Z,101490.82
2017-08-07T04:07:18.252Z,101487.25
2017-08-07T04:09:45.639Z,101485.98
2017-08-07T04:12:13.051Z,101487.77
2017-08-07T04:14:40.443Z,101487.11
2017-08-07T04:17:07.839Z,101480.58
2017-08-07T04:19:35.245Z,101485.33
2017-08-07T04:22:02.631Z,101497.48
2017-08-07T04:24:30.045Z,101492.70
2017-08-07T04:26:57.430Z,101487.11
2017-08-07T04:29:24.818Z,101489.03
2017-08-07T04:31:52.224Z,101486.56
2017-08-07T04:34:19.614Z,101479.80
2017-08-07T04:36:47.005Z,101485.69
2017-08-07T04:39:14.399Z,101484.22
2017-08-07T04:41:41.820Z,101484.97
2017-08-07T04:44:09.306Z,101485.78
2017-08-07T04:46:36.694Z,101495.31
2017-08-07T04:49:04.098Z,101499.24
2017-08-07T04:51:31.496Z,101499.31
2017-08-07T04:53:58.879Z,101494.20
2017-08-07T04:56:26.275Z,101492.52
2017-08-07T04:58:53.681Z,101487.51
2017-08-07T05:01:21.084Z,101484.48
2017-08-07T05:03:48.479Z,101487.83
2017-08-07T05:06:15.882Z,101484.87
2017-08-07T05:08:43.263Z,101474.14
2017-08-07T05:11:10.651Z,101475.41
2017-08-07T05:13:38.049Z,101482.98
2017-08-07T05:16:05.439Z,101478.98
2017-08-07T05:18:32.839Z,101483.87
2017-08-07T05:21:00.239Z,101481.30
2017-08-07T05:23:27.635Z,101478.95
2017-08-07T05:25:55.027Z,101476.80
2017-08-07T05:28:22.431Z,101477.98
2017-08-07T05:30:49.816Z,101479.25
2017-08-07T05:33:17.211Z,101476.09
2017-08-07T05:35:44.606Z,101479.55
2017-08-07T05:38:12.013Z,101478.02
2017-08-07T05:40:39.402Z,101479.73
2017-08-07T05:43:06.811Z,101479.38
2017-08-07T05:45:34.195Z,101480.94
2017-08-07T05:48:01.591Z,101479.24
2017-08-07T05:50:28.984Z,101482.03
2017-08-07T05:52:56.380Z,101475.06
2017-08-07T05:55:23.774Z,101476.12
2017-08-07T05:57:51.159Z,101475.84
2017-08-07T06:00:18.565Z,101481.88
2017-08-07T06:02:45.958Z,101478.58
2017-08-07T06:05:13.356Z,101484.14
2017-08-07T06:07:40.739Z,101478.73
2017-08-07T06:10:08.147Z,101482.67
2017-08-07T06:12:35.531Z,101484.81
2017-08-07T06:15:02.935Z,101483.77
2017-08-07T06:17:30.323Z,101477.36
2017-08-07T06:19:57.713Z,101476.44
2017-08-07T06:22:25.103Z,101479.78
2017-08-07T06:24:52.500Z,101473.73
2017-08-07T06:27:19.890Z,101469.31
2017-08-07T06:29:47.283Z,101469.69
2017-08-07T06:32:14.666Z,101472.95
2017-08-07T06:34:42.074Z,101475.16
2017-08-07T06:37:09.466Z,101469.34
2017-08-07T06:39:36.851Z,101473.19
2017-08-07T06:42:04.247Z,101470.49
2017-08-07T06:44:31.656Z,101468.72
2017-08-07T06:46:59.051Z,101465.34
2017-08-07T06:49:26.444Z,101457.91
2017-08-07T06:51:53.847Z,101469.81
2017-08-07T06:54:21.235Z,101462.66
2017-08-07T06:56:48.632Z,101457.36
2017-08-07T06:59:16.020Z,101454.50
2017-08-07T07:01:43.436Z,101448.64
2017-08-07T07:04:10.818Z,101454.16
2017-08-07T07:06:38.216Z,101449.02
2017-08-07T07:09:05.603Z,101450.50
2017-08-07T07:11:33.215Z,101453.09
2017-08-07T07:14:00.615Z,101453.55
2017-08-07T07:16:28.000Z,101456.36
2017-08-07T07:18:55.396Z,101452.69
2017-08-07T07:21:22.795Z,101447.64
2017-08-07T07:23:50.191Z,101448.63
2017-08-07T07:26:17.599Z,101453.68
2017-08-07T07:28:45.194Z,101453.64
2017-08-07T07:31:12.586Z,101450.08
2017-08-07T07:33:39.975Z,101448.54
2017-08-07T07:36:07.375Z,101449.36
2017-08-07T07:38:34.771Z,101443.08
2017-08-07T07:41:02.163Z,101443.39
2017-08-07T07:43:29.564Z,101441.00
2017-08-07T07:45:56.953Z,101435.25
2017-08-07T07:48:24.349Z,101441.88
2017-08-07T07:50:51.760Z,101437.14
2017-08-07T07:53:19.147Z,101431.55
2017-08-07T07:55:46.542Z,101428.09
2017-08-07T07:58:13.951Z,101427.14
2017-08-07T08:00:41.349Z,101423.34
2017-08-07T08:03:08.752Z,101419.44
2017-08-07T08:05:36.135Z,101419.11
2017-08-07T08:08:03.539Z,101416.73
2017-08-07T08:10:31.138Z,101417.43
2017-08-07T08:12:58.538Z,101421.77
2017-08-07T08:15:25.926Z,101417.98
2017-08-07T08:17:53.319Z,101415.83
2017-08-07T08:20:20.723Z,101418.19
2017-08-07T08:22:48.100Z,101413.53
2017-08-07T08:25:15.710Z,101424.45
2017-08-07T08:27:43.108Z,101418.03
2017-08-07T08:30:10.510Z,101422.47
2017-08-07T08:32:37.905Z,101419.63
2017-08-07T08:35:05.284Z,101417.77
2017-08-07T08:37:32.697Z,101409.03
2017-08-07T08:40:00.074Z,101408.80
2017-08-07T08:42:27.853Z,101409.55
2017-08-07T08:44:55.223Z,101411.30
2017-08-07T08:47:22.624Z,101403.86
2017-08-07T08:49:50.006Z,101404.36
2017-08-07T08:52:17.403Z,101401.88
2017-08-07T08:54:44.799Z,101396.42
2017-08-07T08:57:12.194Z,101393.37
2017-08-07T08:59:39.602Z,101390.73
2017-08-07T09:02:06.993Z,101389.32
2017-08-07T09:04:34.390Z,101393.06
2017-08-07T09:07:01.787Z,101393.24
2017-08-07T09:09:29.181Z,101393.72
2017-08-07T09:11:56.578Z,101393.79
2017-08-07T09:14:23.968Z,101387.67
2017-08-07T09:16:51.359Z,101390.44
2017-08-07T09:19:18.764Z,101390.33
2017-08-07T09:21:46.363Z,101385.79
2017-08-07T09:24:13.758Z,101382.97
2017-08-07T09:26:41.149Z,101377.89
2017-08-07T09:29:08.547Z,101379.16
2017-08-07T09:31:35.942Z,101370.91
2017-08-07T09:34:03.334Z,101372.55
2017-08-07T09:36:30.727Z,101370.76
2017-08-07T09:38:58.126Z,101368.66
2017-08-07T09:41:25.511Z,101373.38
2017-08-07T09:43:52.904Z,101358.94
2017-08-07T09:46:20.290Z,101351.16
2017-08-07T09:48:47.686Z,101355.80
2017-08-07T09:51:15.080Z,101360.30
2017-08-07T09:53:42.470Z,101351.13
2017-08-07T09:56:09.857Z,101344.31
2017-08-07T09:58:37.244Z,101344.29
2017-08-07T10:01:04.637Z,101339.20
2017-08-07T10:03:32.042Z,101341.55
2017-08-07T10:05:59.512Z,101339.17
2017-08-07T10:08:26.904Z,101336.14
2017-08-07T10:10:54.302Z,101338.08
2017-08-07T10:13:21.696Z,101340.33
2017-08-07T10:15:49.100Z,101334.91
2017-08-07T10:18:16.486Z,101328.94
2017-08-07T10:20:43.886Z,101333.94
2017-08-07T10:23:11.290Z,101324.30
2017-08-07T10:25:38.912Z,101321.43
2017-08-07T10:28:06.298Z,101321.63
2017-08-07T10:30:33.699Z,101314.38
2017-08-07T10:33:01.091Z,101310.86
2017-08-07T10:35:28.479Z,101315.22
2017-08-07T10:37:55.875Z,101309.70
2017-08-07T10:40:23.274Z,101318.33
2017-08-07T10:42:50.664Z,101317.42
2017-08-07T10:45:18.067Z,101308.84
2017-08-07T10:47:45.455Z,101307.67
2017-08-07T10:50:12.856Z,101315.60
2017-08-07T10:52:40.246Z,101308.63
2017-08-07T10:55:07.756Z,101312.15
2017-08-07T10:57:35.187Z,101307.38
2017-08-07T11:00:02.594Z,101303.83
2017-08-07T11:02:29.976Z,101307.55
2017-08-07T11:04:57.372Z,101309.19
2017-08-07T11:07:24.767Z,101305.80
2017-08-07T11:09:52.182Z,101305.00
2017-08-07T11:12:19.580Z,101304.06
2017-08-07T11:14:46.991Z,101299.02
2017-08-07T11:17:14.380Z,101300.23
2017-08-07T11:19:41.776Z,101296.75
2017-08-07T11:22:09.198Z,101293.45
2017-08-07T11:24:36.587Z,101303.08
2017-08-07T11:27:03.971Z,101300.44
2017-08-07T11:29:31.367Z,101294.28
2017-08-07T11:31:58.804Z,101289.73
2017-08-07T11:34:26.187Z,101285.24
2017-08-07T11:36:53.635Z,101282.81
2017-08-07T11:39:21.043Z,101280.97
2017-08-07T11:41:48.435Z,101276.94
2017-08-07T11:44:15.834Z,101274.67
2017-08-07T11:46:43.235Z,101267.63
2017-08-07T11:49:10.631Z,101274.16
2017-08-07T11:51:38.023Z,101280.25
2017-08-07T11:54:05.403Z,101277.48
2017-08-07T11:56:32.806Z,101273.69
2017-08-07T11:59:00.191Z,101276.67
2017-08-07T12:01:27.594Z,101276.88
2017-08-07T12:03:54.983Z,101263.85
2017-08-07T12:06:22.372Z,101270.09
2017-08-07T12:08:49.761Z,101258.94
2017-08-07T12:11:17.150Z,101262.05
2017-08-07T12:13:44.535Z,101258.09
2017-08-07T12:16:12.141Z,101258.78
2017-08-07T12:18:39.551Z,101261.14
2017-08-07T12:21:06.942Z,101265.50
2017-08-07T12:23:34.343Z,101261.56
2017-08-07T12:26:01.735Z,101257.20
2017-08-07T12:28:29.127Z,101249.38
2017-08-07T12:30:56.522Z,101251.92
2017-08-07T12:33:23.916Z,101243.33
2017-08-07T12:35:51.326Z,101248.05
2017-08-07T12:38:18.761Z,101245.21
2017-08-07T12:40:46.150Z,101246.42
2017-08-07T12:43:13.546Z,101250.98
2017-08-07T12:45:40.955Z,101252.09
2017-08-07T12:48:08.342Z,101242.36
2017-08-07T12:50:35.739Z,101235.89
2017-08-07T12:53:03.339Z,101243.42
2017-08-07T12:55:30.738Z,101238.56
2017-08-07T12:57:58.130Z,101240.34
2017-08-07T13:00:25.555Z,101237.59
2017-08-07T13:02:52.951Z,101237.71
2017-08-07T13:05:20.360Z,101237.88
2017-08-07T13:07:47.752Z,101237.30
2017-08-07T13:10:15.366Z,101243.05
2017-08-07T13:12:42.975Z,101230.03
2017-08-07T13:15:10.390Z,101227.80
2017-08-07T13:17:37.994Z,101228.77
2017-08-07T13:20:05.390Z,101231.72
2017-08-07T13:22:32.993Z,101230.23
2017-08-07T13:25:00.374Z,101229.58
2017-08-07T13:27:27.775Z,101231.50
2017-08-07T13:29:55.373Z,101226.48
2017-08-07T13:32:22.763Z,101235.56
2017-08-07T13:34:50.959Z,101223.17
2017-08-07T13:37:18.359Z,101222.96
2017-08-07T13:39:45.742Z,101225.98
2017-08-07T13:42:13.147Z,101227.21
2017-08-07T13:44:40.530Z,101221.31
2017-08-07T13:47:07.932Z,101217.91
2017-08-07T13:49:35.321Z,101219.03
2017-08-07T13:52:02.715Z,101214.65
2017-08-07T13:54:30.114Z,101204.69
2017-08-07T13:56:57.507Z,101207.90
2017-08-07T13:59:24.894Z,101210.37
2017-08-07T14:01:52.294Z,101200.13
2017-08-07T14:04:19.696Z,101208.75
2017-08-07T14:06:47.103Z,101200.48
2017-08-07T14:09:14.499Z,101193.97
2017-08-07T14:11:41.906Z,101200.23
2017-08-07T14:14:09.290Z,101198.88
2017-08-07T14:16:36.688Z,101189.30
2017-08-07T14:19:04.079Z,101195.80
2017-08-07T14:21:31.479Z,101189.45
2017-08-07T14:23:58.886Z,101191.07
2017-08-07T14:26:26.274Z,101190.77
2017-08-07T14:28:53.662Z,101190.97
2017-08-07T14:31:21.061Z,101184.96
2017-08-07T14:33:48.451Z,101185.71
2017-08-07T14:36:15.841Z,101184.55
2017-08-07T14:38:43.231Z,101177.59
2017-08-07T14:41:10.631Z,101177.34
2017-08-07T14:43:38.030Z,101174.14
2017-08-07T14:46:05.411Z,101178.23
2017-08-07T14:48:32.804Z,101177.77
2017-08-07T14:51:00.204Z,101175.19
2017-08-07T14:53:27.610Z,101173.15
2017-08-07T14:55:55.003Z,101170.91
2017-08-07T14:58:22.599Z,101169.32
2017-08-07T15:00:50.005Z,101163.36
2017-08-07T15:03:17.395Z,101165.24
2017-08-07T15:05:44.787Z,101163.59
2017-08-07T15:08:12.403Z,101154.61
2017-08-07T15:10:39.799Z,101156.87
2017-08-07T15:13:07.405Z,101153.09
2017-08-07T15:15:34.795Z,101159.70
2017-08-07T15:18:02.203Z,101158.39
2017-08-07T15:20:29.591Z,101160.43
2017-08-07T15:22:56.986Z,101158.53
2017-08-07T15:25:24.590Z,101156.63
2017-08-07T15:27:51.975Z,101149.70
2017-08-07T15:30:19.359Z,101149.45
2017-08-07T15:32:46.752Z,101154.09
2017-08-07T15:35:14.140Z,101151.73
2017-08-07T15:37:41.758Z,101152.05
2017-08-07T15:40:09.135Z,101147.23
2017-08-07T15:42:36.528Z,101146.89
2017-08-07T15:45:03.915Z,101144.88
2017-08-07T15:47:31.302Z,101145.73
2017-08-07T15:49:58.691Z,101135.83
2017-08-07T15:52:26.322Z,101142.80
2017-08-07T15:54:53.716Z,101143.00
2017-08-07T15:57:21.104Z,101145.56
2017-08-07T15:59:48.903Z,101149.57
2017-08-07T16:02:16.304Z,101141.32
2017-08-07T16:04:43.692Z,101140.34
2017-08-07T16:07:11.083Z,101139.78
2017-08-07T16:09:38.488Z,101141.41
2017-08-07T16:12:06.091Z,101134.18
2017-08-07T16:14:33.607Z,101134.81
2017-08-07T16:17:01.099Z,101128.29
2017-08-07T16:19:28.702Z,101131.84
2017-08-07T16:21:56.097Z,101132.45
2017-08-07T16:24:23.484Z,101129.66
2017-08-07T16:26:50.880Z,101127.75
2017-08-07T16:29:18.263Z,101112.91
2017-08-07T16:31:45.650Z,101118.16
2017-08-07T16:34:13.049Z,101109.16
2017-08-07T16:36:40.461Z,101113.04
2017-08-07T16:39:07.855Z,101108.20
2017-08-07T16:41:36.003Z,101106.03
2017-08-07T16:44:03.418Z,101108.49
2017-08-07T16:46:30.801Z,101105.79
2017-08-07T16:48:58.186Z,101104.91
2017-08-07T16:51:25.595Z,101099.37
2017-08-07T16:53:52.975Z,101106.45
2017-08-07T16:56:20.371Z,101105.85
2017-08-07T16:58:47.768Z,101102.66
2017-08-07T17:01:15.160Z,101098.94
2017-08-07T17:03:42.543Z,101102.56
2017-08-07T17:06:09.971Z,101098.72
2017-08-07T17:08:37.355Z,101102.36
2017-08-07T17:11:04.757Z,101104.33
2017-08-07T17:13:32.139Z,101096.81
2017-08-07T17:15:59.551Z,101098.12
2017-08-07T17:18:27.146Z,101095.52
2017-08-07T17:20:54.549Z,101093.94
2017-08-07T17:23:21.939Z,101092.50
2017-08-07T17:25:49.341Z,101090.57
2017-08-07T17:28:16.727Z,101087.18
2017-08-07T17:30:44.490Z,101089.98
2017-08-07T17:33:12.188Z,101084.02
2017-08-07T17:35:39.660Z,101080.56
2017-08-07T17:38:07.072Z,101084.41
2017-08-07T17:40:34.459Z,101079.86
2017-08-07T17:43:01.873Z,101076.27
2017-08-07T17:45:29.270Z,101075.51
2017-08-07T17:47:56.719Z,101079.41
2017-08-07T17:50:24.103Z,101070.00
2017-08-07T17:52:51.500Z,101073.85
2017-08-07T17:55:18.894Z,101075.62
2017-08-07T17:57:46.298Z,101075.09
2017-08-07T18:00:13.692Z,101073.43
2017-08-07T18:02:41.091Z,101073.19
2017-08-07T18:05:08.519Z,101065.33
2017-08-07T18:07:35.899Z,101070.92
2017-08-07T18:10:03.279Z,101070.64
2017-08-07T18:12:30.722Z,101076.80
2017-08-07T18:14:58.110Z,101072.38
2017-08-07T18:17:25.499Z,101068.09
2017-08-07T18:19:52.909Z,101069.73
2017-08-07T18:22:20.354Z,101065.95
2017-08-07T18:24:47.737Z,101066.73
2017-08-07T18:27:15.123Z,101066.48
2017-08-07T18:29:42.511Z,101070.06
2017-08-07T18:32:09.934Z,101064.22
2017-08-07T18:34:37.348Z,101062.73
2017-08-07T18:37:04.733Z,101066.87
2017-08-07T18:39:32.130Z,101068.25
2017-08-07T18:41:59.524Z,101064.84
2017-08-07T18:44:26.911Z,101063.73
2017-08-07T18:46:54.309Z,101065.38
2017-08-07T18:49:21.704Z,101061.16
2017-08-07T18:51:49.290Z,101058.08
2017-08-07T18:54:16.694Z,101059.51
2017-08-07T18:56:44.079Z,101060.59
2017-08-07T18:59:11.475Z,101061.54
2017-08-07T19:01:38.871Z,101064.20
2017-08-07T19:04:06.484Z,101061.52
2017-08-07T19:06:33.876Z,101061.41
2017-08-07T19:09:01.287Z,101067.67
2017-08-07T19:11:28.683Z,101059.66
2017-08-07T19:13:56.095Z,101062.98
2017-08-07T19:16:23.511Z,101065.70
2017-08-07T19:18:50.910Z,101058.55
2017-08-07T19:21:18.303Z,101064.22
2017-08-07T19:23:45.904Z,101061.47
2017-08-07T19:26:13.298Z,101060.05
2017-08-07T19:28:40.741Z,101055.81
2017-08-07T19:31:08.130Z,101052.41
2017-08-07T19:33:35.515Z,101053.55
2017-08-07T19:36:02.907Z,101048.55
2017-08-07T19:38:30.303Z,101052.62
2017-08-07T19:40:57.706Z,101045.86
2017-08-07T19:43:25.104Z,101050.98
2017-08-07T19:45:52.504Z,101049.08
2017-08-07T19:48:20.102Z,101051.00
2017-08-07T19:50:47.710Z,101050.14
2017-08-07T19:53:15.152Z,101052.50
2017-08-07T19:55:43.243Z,101050.39
2017-08-07T19:58:10.632Z,101047.80
2017-08-07T20:00:38.022Z,101044.95
2017-08-07T20:03:05.790Z,101035.70
2017-08-07T20:05:33.238Z,101039.34
2017-08-07T20:08:00.659Z,101048.98
2017-08-07T20:10:28.046Z,101051.70
2017-08-07T20:12:55.442Z,101047.69
2017-08-07T20:15:22.835Z,101051.38
2017-08-07T20:17:50.238Z,101047.33
2017-08-07T20:20:17.623Z,101049.20
2017-08-07T20:22:45.027Z,101041.97
2017-08-07T20:25:12.416Z,101043.50
2017-08-07T20:27:39.806Z,101047.35
2017-08-07T20:30:07.215Z,101042.66
2017-08-07T20:32:34.616Z,101042.27
2017-08-07T20:35:02.000Z,101042.05
2017-08-07T20:37:29.408Z,101050.63
2017-08-07T20:39:56.798Z,101048.28
2017-08-07T20:42:24.414Z,101039.45
2017-08-07T20:44:51.812Z,101046.03
2017-08-07T20:47:19.220Z,101047.22
2017-08-07T20:49:46.615Z,101037.86
2017-08-07T20:52:14.031Z,101042.02
2017-08-07T20:54:41.432Z,101041.59
2017-08-07T20:57:08.814Z,101042.70
2017-08-07T20:59:36.216Z,101043.70
2017-08-07T21:02:03.599Z,101053.57
2017-08-07T21:04:31.202Z,101042.19
2017-08-07T21:06:58.595Z,101046.49
2017-08-07T21:09:25.995Z,101041.33
2017-08-07T21:11:53.386Z,101039.56
2017-08-07T21:14:20.790Z,101040.01
2017-08-07T21:16:48.179Z,101035.02
2017-08-07T21:19:15.583Z,101043.28
2017-08-07T21:21:42.991Z,101045.48
2017-08-07T21:24:10.381Z,101043.80
2017-08-07T21:26:37.767Z,101038.92
2017-08-07T21:29:05.162Z,101038.05
2017-08-07T21:31:32.556Z,101039.29
2017-08-07T21:34:00.154Z,101039.52
2017-08-07T21:36:27.542Z,101035.66
2017-08-07T21:38:54.932Z,101041.15
2017-08-07T21:41:22.327Z,101037.55
2017-08-07T21:43:49.739Z,101034.66
2017-08-07T21:46:17.124Z,101032.00
2017-08-07T21:48:44.515Z,101029.55
2017-08-07T21:51:11.919Z,101027.41
2017-08-07T21:53:39.307Z,101025.36
2017-08-07T21:56:06.713Z,101021.58
2017-08-07T21:58:34.144Z,101018.84
2017-08-07T22:01:01.618Z,101013.00
2017-08-07T22:03:29.015Z,101002.55
2017-08-07T22:05:56.411Z,101000.49
2017-08-07T22:08:23.795Z,101003.28
2017-08-07T22:10:51.190Z,101006.36
2017-08-07T22:13:18.795Z,100996.11
2017-08-07T22:15:46.187Z,101001.73
2017-08-07T22:18:13.579Z,101007.56
2017-08-07T22:20:41.010Z,101000.66
2017-08-07T22:23:08.393Z,101000.56
2017-08-07T22:25:35.779Z,101003.08
2017-08-07T22:28:03.183Z,101002.15
2017-08-07T22:30:30.583Z,101000.08
2017-08-07T22:32:57.985Z,101004.04
2017-08-07T22:35:25.388Z,101005.77
2017-08-07T22:37:52.778Z,101001.31
2017-08-07T22:40:20.203Z,101008.78
2017-08-07T22:42:47.605Z,101004.05
2017-08-07T22:45:14.989Z,100999.22
2017-08-07T22:47:42.590Z,101000.98
2017-08-07T22:50:09.983Z,100996.53
2017-08-07T22:52:37.375Z,100997.52
2017-08-07T22:55:04.763Z,100995.15
2017-08-07T22:57:32.164Z,100998.94
2017-08-07T22:59:59.548Z,100991.71
2017-08-07T23:02:26.940Z,100984.62
2017-08-07T23:04:54.322Z,100984.27
2017-08-07T23:07:21.712Z,100992.62
2017-08-07T23:09:49.307Z,100984.28
2017-08-07T23:12:16.699Z,100981.91
2017-08-07T23:14:44.094Z,100982.97
2017-08-07T23:17:11.495Z,100976.54
2017-08-07T23:19:38.889Z,100979.08
2017-08-07T23:22:06.281Z,100975.70
2017-08-07T23:24:33.689Z,100976.54
2017-08-07T23:27:01.071Z,100976.40
2017-08-07T23:29:28.464Z,100977.61
2017-08-07T23:31:55.854Z,100974.62
2017-08-07T23:34:23.255Z,100970.09
2017-08-07T23:36:50.646Z,100963.98
2017-08-07T23:39:18.037Z,100958.46
2017-08-07T23:41:45.427Z,100957.44
2017-08-07T23:44:12.831Z,100957.35
2017-08-07T23:46:40.216Z,100956.94
2017-08-07T23:49:07.612Z,100956.60
2017-08-07T23:51:34.993Z,100952.52
2017-08-07T23:54:02.397Z,100952.39
2017-08-07T23:56:29.794Z,100958.61
2017-08-07T23:58:57.178Z,100946.00
